Airfield :
LOGIN :

Register | Disclaimer

   EN    FR    IT 

 










Legend :    VFR   Marginal VFR   IFR   Intensive IFR   Very Intensive IFR
Visi :
Ceiling :
>= 8 km
>= 3000ft
5 to 8 km
1000 to 3000 ft
1500m to 5 km
500 to 1000 ft
800 to 1500m
200 to 500 ft
< 800m
< 200 ft
Symbols :   Thunderstorms  Fog  Heavy snow  Heavy precipitations  Wind > 20 kt
SIGMETs :     Misc.  Thunderstorms  Icing  Turbulence  Mountain Waves  Volcanic Ashes







- Airport Elevation : 302 ft
- IATA code : CGN


EDDK - Cologne Bonn

CURRENT METAR :
  • 191350Z 16004KT 090V210 9999 FEW028 17/09 Q1023 NOSIG

EXPIRED METARs :
  • 191320Z 14003KT 070V220 9999 FEW025 16/09 Q1023 NOSIG
  • 191250Z VRB04KT 9999 SCT025 16/09 Q1024 NOSIG
  • 191220Z 25004KT 160V300 9999 SCT024 16/09 Q1024 NOSIG
  • 191150Z 18004KT 120V280 9999 FEW021 16/09 Q1024 NOSIG
  • 191120Z 25003KT 140V310 9999 FEW017 15/09 Q1024 NOSIG

TAF TAF EDDK
Valid from the 19 at 12:00 until the 20 at 18:00 UTC


191100Z 1912/2018 VRB03KT 8000 SCT030
PROB30
TEMPO 2003/2008 4000 BR
BECMG 2012/2014 34005KT
No reported NOTAMs for that airfield.



MET'MAP, your aeronautical weather chart ! - Copyright ORBIFLY December 2007 - Disclaimer

ORBIFLY MET'MAP TEAM :

Programming & Development : Alexandra Zaïnal
Concept & Development : Baudouin d'Aumeries
Co-Development & Prog : Marc-Olivier Méhu
Technical & hardware support : Manuel Goepfert

Contact : metmap@orbifly.com




SOURCES & CREDITS :

   NOAA